Main page
METAR-TAF:

METAR-TAF

Airports :

Norwich Airport

Norwich, England

latitude: 52-38N, longitude: 001-18E, elevation: 14 m

Current weather observation

The report was made 24 minutes ago, at 20:50 UTC
Wind 5 kt from the West
Temperature 2°C
Humidity 87%
Pressure 1023 hPa
Visibility 10 km or more

METAR: EGSH 112050Z AUTO 27005KT 9999 NCD 02/M00 Q1023

Time: 22:14 (21:14 UTC)

Forecast

The report was made 1 hour and 22 minutes ago, at 19:52 UTC
Forecast valid from 11 at 21 UTC to 12 at 06 UTC
Wind 6 kt from the West
Visibility 10 km or more
Scattered clouds at a height of 2500 ft
Probability 40% :
Temporary
from 11 at 21 UTC to 12 at 04 UTC
Visibility: 5000 m
rain showers, snow
Probability 30% :
Temporary
from 12 at 01 UTC to 12 at 06 UTC
Broken clouds at a height of 800 ft

TAF: EGSH 111952Z 1121/1206 28006KT 9999 SCT025 PROB40 TEMPO 1121/1204 5000 SHRASN PROB30 TEMPO 1201/1206 BKN008

Weather observations and forecasts of more than 4000 airports (METAR and TAF reports).

The available stations are represented by yellow and red dots on the map.

Hover mouse over dot to see the name of the station.

Then click to see weather observations and forecasts.

To change the map : click on the green buttons with a black cross to zoom in, on the green button with a dash to zoom out, or on the green arrows for adjacent maps.


METAR-TAF: